Time;durP1;ratioP1;P1;durP2;ratioP2;P2;SDS_P1;SDS_P2;PMS_P1;PMS_P2;Temp;Humidity;BMP_temperature;BMP_pressure;BME280_temperature;BME280_humidity;BME280_pressure;Samples;Min_cycle;Max_cycle;Signal;HPM_P1;HPM_P2
2023/04/30 00:01:59;;;;;;;2.20;2.00;;;;;;;20.37;53.89;97671.25;4968719;28;20242;-31
2023/04/30 00:04:26;;;;;;;2.40;2.20;;;;;;;20.40;53.83;97677.31;4969444;28;20675;-29
2023/04/30 00:06:53;;;;;;;3.27;2.00;;;;;;;20.40;54.32;97679.84;4970138;28;20619;-28
2023/04/30 00:09:19;;;;;;;2.23;2.00;;;;;;;20.40;54.17;97684.97;4963775;28;20323;-28
2023/04/30 00:11:46;;;;;;;1.87;1.77;;;;;;;20.39;54.24;97682.34;4971645;28;20230;-29
2023/04/30 00:14:12;;;;;;;1.90;1.80;;;;;;;20.38;54.03;97685.72;4962678;28;20302;-29
2023/04/30 00:16:39;;;;;;;2.57;1.83;;;;;;;20.36;54.03;97695.00;4968661;28;20286;-28
2023/04/30 00:19:07;;;;;;;2.50;2.00;;;;;;;20.34;54.05;97683.88;4969607;28;20716;-29
2023/04/30 00:21:33;;;;;;;1.97;1.87;;;;;;;20.39;53.70;97688.34;4964399;28;20216;-28
2023/04/30 00:24:00;;;;;;;2.20;2.00;;;;;;;20.40;53.52;97695.16;4964051;28;20200;-28
2023/04/30 00:26:27;;;;;;;2.30;2.10;;;;;;;20.40;53.92;97697.72;4963334;28;20222;-29
2023/04/30 00:28:53;;;;;;;3.43;2.10;;;;;;;20.40;53.90;97696.88;4961836;28;20753;-29
2023/04/30 00:31:20;;;;;;;1.87;1.77;;;;;;;20.39;53.88;97701.09;4964589;28;20224;-29
2023/04/30 00:33:46;;;;;;;2.10;1.90;;;;;;;20.40;53.92;97701.97;4968911;28;20713;-28
2023/04/30 00:36:13;;;;;;;3.03;2.13;;;;;;;20.39;53.69;97701.09;4956083;28;20211;-28
2023/04/30 00:38:39;;;;;;;2.20;1.90;;;;;;;20.39;54.08;97703.66;4967178;28;20256;-29
2023/04/30 00:41:06;;;;;;;2.47;1.73;;;;;;;20.39;54.23;97701.09;4961105;28;20782;-29
2023/04/30 00:43:33;;;;;;;2.43;1.93;;;;;;;20.36;54.03;97700.97;4965410;28;20223;-29
2023/04/30 00:45:59;;;;;;;2.10;2.00;;;;;;;20.39;53.44;97707.88;4968144;28;20225;-30
2023/04/30 00:48:26;;;;;;;2.20;2.00;;;;;;;20.40;54.16;97709.63;4966722;28;20554;-28
2023/04/30 00:50:53;;;;;;;2.70;2.20;;;;;;;20.40;53.89;97704.53;4970197;28;20207;-28
2023/04/30 00:53:20;;;;;;;1.73;1.63;;;;;;;20.39;54.21;97697.66;4966598;28;20670;-29
2023/04/30 00:55:46;;;;;;;1.93;1.83;;;;;;;20.38;54.17;97693.38;4959371;28;20212;-29
2023/04/30 00:58:13;;;;;;;1.97;1.83;;;;;;;20.40;53.92;97704.53;4949312;28;20294;-29
2023/04/30 01:00:45;;;;;;;3.00;1.80;;;;;;;20.37;53.84;97702.72;4957875;28;20204;-28
2023/04/30 01:03:13;;;;;;;2.17;1.97;;;;;;;20.40;53.99;97702.81;4963993;28;20215;-30
2023/04/30 01:05:39;;;;;;;3.23;1.90;;;;;;;20.40;53.88;97705.38;4973470;28;20237;-28
2023/04/30 01:08:06;;;;;;;2.13;2.03;;;;;;;20.40;54.13;97704.53;4970259;28;20199;-29
2023/04/30 01:10:38;;;;;;;2.33;2.00;;;;;;;20.32;53.85;97700.81;4951144;28;20271;-29
2023/04/30 01:13:24;;;;;;;2.30;1.97;;;;;;;20.40;53.88;97704.53;4957905;28;20310;-29
2023/04/30 01:16:05;;;;;;;2.20;2.00;;;;;;;20.40;54.04;97704.53;4974076;28;20210;-29
2023/04/30 01:18:45;;;;;;;2.50;1.80;;;;;;;20.40;53.83;97709.63;4971115;28;20214;-28
2023/04/30 01:21:12;;;;;;;2.33;2.13;;;;;;;20.38;53.85;97711.25;4947891;28;20223;-29
2023/04/30 01:24:12;;;;;;;2.20;2.00;;;;;;;20.26;53.86;97691.25;4970762;28;20200;-28
2023/04/30 01:27:04;;;;;;;2.20;2.00;;;;;;;20.39;54.08;97716.41;4973645;28;20218;-29
2023/04/30 01:29:30;;;;;;;2.23;1.87;;;;;;;20.34;53.98;97706.84;4966050;28;20193;-28
2023/04/30 01:31:57;;;;;;;2.10;1.90;;;;;;;20.40;54.51;97724.94;4966515;28;20227;-28
2023/04/30 01:34:23;;;;;;;2.23;2.00;;;;;;;20.40;53.66;97717.28;4967078;28;20295;-30
2023/04/30 01:37:05;;;;;;;2.10;1.90;;;;;;;20.41;53.87;97726.69;4965886;28;20296;-29
2023/04/30 01:39:59;;;;;;;2.33;2.00;;;;;;;20.40;53.87;97730.91;4969079;28;20286;-30
2023/04/30 01:42:35;;;;;;;2.00;1.80;;;;;;;20.40;53.87;97732.63;4966957;28;20219;-28
2023/04/30 01:45:12;;;;;;;2.13;1.93;;;;;;;20.40;54.07;97732.63;4967291;28;20282;-28
2023/04/30 01:47:39;;;;;;;1.90;1.80;;;;;;;20.40;54.07;97732.63;4964767;28;20203;-29
2023/04/30 01:50:28;;;;;;;2.20;2.00;;;;;;;20.39;54.05;97734.28;4973110;28;20636;-28
2023/04/30 01:52:58;;;;;;;2.33;2.13;;;;;;;20.36;54.04;97736.72;4967602;28;20233;-29
2023/04/30 01:55:40;;;;;;;2.23;1.90;;;;;;;20.38;54.15;97735.09;4939565;28;20693;-30
2023/04/30 01:58:09;;;;;;;2.90;2.07;;;;;;;20.38;54.00;97742.75;4962420;28;20624;-30
2023/04/30 02:00:35;;;;;;;2.17;1.97;;;;;;;20.39;54.08;97735.94;4966933;28;20211;-28
2023/04/30 02:03:02;;;;;;;1.90;1.80;;;;;;;20.35;54.23;97726.47;4970547;28;20215;-28
2023/04/30 02:05:29;;;;;;;1.80;1.70;;;;;;;20.38;54.39;97727.44;4966360;28;20250;-30
2023/04/30 02:07:56;;;;;;;2.00;1.80;;;;;;;20.38;54.15;97731.66;4962872;28;20563;-28
2023/04/30 02:10:23;;;;;;;1.90;1.80;;;;;;;20.38;54.10;97730.00;4965112;28;20287;-28
2023/04/30 02:12:50;;;;;;;2.13;1.93;;;;;;;20.40;54.20;97735.16;4973630;28;20233;-29
2023/04/30 02:15:16;;;;;;;2.20;2.00;;;;;;;20.30;53.96;97721.19;4970217;28;21057;-29
2023/04/30 02:17:43;;;;;;;2.13;1.90;;;;;;;20.36;53.37;97736.72;4959913;28;20234;-28
2023/04/30 02:20:10;;;;;;;2.07;1.87;;;;;;;20.39;53.91;97730.84;4964886;28;20207;-28
2023/04/30 02:22:36;;;;;;;1.97;1.87;;;;;;;20.39;53.96;97735.94;4966083;28;20225;-29
2023/04/30 02:25:03;;;;;;;2.03;1.80;;;;;;;20.39;53.93;97731.72;4958833;28;20295;-29
2023/04/30 02:27:30;;;;;;;1.80;1.70;;;;;;;20.39;53.87;97734.28;4959625;28;20204;-29
2023/04/30 02:29:57;;;;;;;1.83;1.73;;;;;;;20.38;54.05;97727.44;4965824;28;20199;-29
2023/04/30 02:32:24;;;;;;;3.30;2.00;;;;;;;20.39;53.89;97731.72;4958247;28;20228;-29
2023/04/30 02:34:51;;;;;;;2.20;2.00;;;;;;;20.40;54.14;97735.16;4969777;28;20229;-28
2023/04/30 02:37:17;;;;;;;2.03;1.90;;;;;;;20.40;54.11;97741.13;4967752;28;20293;-28
2023/04/30 02:39:44;;;;;;;2.30;2.10;;;;;;;20.38;54.05;97736.78;4968772;28;20249;-29
2023/04/30 02:42:11;;;;;;;1.80;1.70;;;;;;;20.40;53.90;97738.56;4965076;28;20595;-30
2023/04/30 02:44:38;;;;;;;2.00;1.90;;;;;;;20.40;53.77;97751.31;4963499;28;20231;-31
2023/04/30 02:47:04;;;;;;;1.80;1.70;;;;;;;20.40;53.60;97750.47;4959573;28;20208;-29
2023/04/30 02:49:31;;;;;;;2.10;2.00;;;;;;;20.40;53.93;97747.94;4968293;28;20283;-28
2023/04/30 02:51:57;;;;;;;1.90;1.80;;;;;;;20.41;54.11;97754.75;4958518;28;20315;-30
2023/04/30 02:54:24;;;;;;;2.13;1.97;;;;;;;20.40;53.84;97750.47;4969808;28;20699;-29
2023/04/30 02:56:50;;;;;;;2.00;1.80;;;;;;;20.40;53.87;97747.94;4965077;28;20207;-29
2023/04/30 02:59:17;;;;;;;2.03;1.90;;;;;;;20.40;54.24;97753.03;4957548;28;20292;-30
2023/04/30 03:01:44;;;;;;;1.90;1.80;;;;;;;20.39;54.12;97747.03;4958977;28;20314;-29
2023/04/30 03:04:10;;;;;;;2.07;1.97;;;;;;;20.36;53.66;97740.94;4961327;28;20247;-29
2023/04/30 03:06:37;;;;;;;2.17;1.97;;;;;;;20.40;54.88;97751.31;4966211;28;20203;-28
2023/04/30 03:09:04;;;;;;;2.00;1.90;;;;;;;20.39;54.16;97744.50;4973274;28;20693;-28
2023/04/30 03:11:30;;;;;;;1.77;1.67;;;;;;;20.39;53.69;97752.16;4963194;28;20242;-29
2023/04/30 03:13:57;;;;;;;2.13;1.93;;;;;;;20.39;54.15;97754.72;4954144;28;20217;-28
2023/04/30 03:16:23;;;;;;;2.10;2.00;;;;;;;20.34;54.32;97734.94;4963125;28;20211;-28
2023/04/30 03:18:50;;;;;;;2.00;1.80;;;;;;;20.38;54.04;97745.31;4967167;28;20210;-29
2023/04/30 03:21:17;;;;;;;1.90;1.80;;;;;;;20.40;54.08;97747.94;4967475;28;20236;-30
2023/04/30 03:23:45;;;;;;;1.97;1.87;;;;;;;20.35;54.12;97741.78;4966067;28;20207;-30
2023/04/30 03:26:11;;;;;;;2.03;1.93;;;;;;;20.39;54.22;97743.59;4962172;28;20671;-30
2023/04/30 03:28:38;;;;;;;2.10;2.00;;;;;;;20.39;53.99;97746.16;4955982;28;20668;-29
2023/04/30 03:31:04;;;;;;;2.10;2.00;;;;;;;20.38;54.36;97744.44;4964009;28;20200;-29
2023/04/30 03:33:31;;;;;;;1.80;1.70;;;;;;;19.99;54.11;97678.28;4961749;28;20228;-29
2023/04/30 03:35:58;;;;;;;1.90;1.80;;;;;;;20.38;53.66;97742.75;4972847;28;20283;-29
2023/04/30 03:38:25;;;;;;;1.90;1.80;;;;;;;20.39;53.54;97754.72;4967210;28;20210;-28
2023/04/30 03:40:51;;;;;;;2.47;2.27;;;;;;;20.38;54.15;97747.00;4958906;28;20262;-30
2023/04/30 03:43:18;;;;;;;2.20;2.00;;;;;;;20.38;54.03;97749.53;4969874;28;20622;-28
2023/04/30 03:45:45;;;;;;;2.00;1.90;;;;;;;20.39;53.99;97746.16;4956686;28;20227;-38
2023/04/30 03:48:12;;;;;;;1.87;1.77;;;;;;;20.39;54.06;97743.59;4963385;28;20286;-29
2023/04/30 03:50:38;;;;;;;1.80;1.70;;;;;;;20.39;54.21;97736.84;4962649;28;20203;-28
2023/04/30 03:53:05;;;;;;;2.20;2.00;;;;;;;20.40;53.92;97742.81;4963924;28;20813;-29
2023/04/30 03:55:32;;;;;;;2.00;1.90;;;;;;;20.39;54.01;97734.28;4968605;28;20644;-29
2023/04/30 03:57:59;;;;;;;2.23;2.10;;;;;;;20.40;53.82;97730.91;4967073;28;20235;-29
2023/04/30 04:00:26;;;;;;;2.17;2.07;;;;;;;20.39;54.09;97734.28;4958018;28;20664;-29
2023/04/30 04:02:52;;;;;;;2.07;1.90;;;;;;;20.38;53.19;97729.13;4970839;28;20314;-29
2023/04/30 04:05:19;;;;;;;2.00;1.90;;;;;;;20.40;54.00;97730.06;4971225;28;20655;-28
2023/04/30 04:07:45;;;;;;;2.93;2.10;;;;;;;20.39;53.95;97734.28;4966301;28;20670;-28
2023/04/30 04:10:12;;;;;;;1.90;1.80;;;;;;;20.38;53.98;97730.00;4958338;28;20307;-29
2023/04/30 04:12:39;;;;;;;1.90;1.80;;;;;;;20.36;53.91;97726.50;4961773;28;20303;-29
2023/04/30 04:15:06;;;;;;;1.90;1.80;;;;;;;20.40;53.92;97747.94;4968076;28;20225;-29
2023/04/30 04:17:32;;;;;;;1.93;1.83;;;;;;;20.40;54.29;97740.28;4955895;28;20294;-29
2023/04/30 04:19:59;;;;;;;1.87;1.77;;;;;;;20.40;54.16;97741.13;4959794;28;20204;-28
2023/04/30 04:22:26;;;;;;;1.93;1.83;;;;;;;20.37;54.38;97733.34;4963056;28;20220;-28
2023/04/30 04:24:53;;;;;;;2.00;1.90;;;;;;;20.40;53.79;97745.38;4962202;28;20628;-29
2023/04/30 04:27:20;;;;;;;2.47;2.27;;;;;;;20.40;54.12;97745.38;4954273;28;20553;-28
2023/04/30 04:29:47;;;;;;;1.90;1.80;;;;;;;20.39;54.07;97757.25;4964854;28;20204;-29
2023/04/30 04:32:13;;;;;;;1.97;1.87;;;;;;;20.27;54.27;97738.06;4962817;28;20263;-30
2023/04/30 04:34:41;;;;;;;1.90;1.80;;;;;;;20.38;54.51;97760.63;4963310;28;20650;-29
2023/04/30 04:37:08;;;;;;;2.00;1.90;;;;;;;20.38;54.13;97760.63;4964423;28;20207;-29
2023/04/30 04:39:36;;;;;;;3.03;1.90;;;;;;;20.36;54.03;97759.69;4969654;28;20763;-29
2023/04/30 04:42:03;;;;;;;1.90;1.80;;;;;;;20.38;54.15;97763.19;4970482;28;20227;-28
2023/04/30 04:44:31;;;;;;;2.07;1.87;;;;;;;20.37;54.27;97756.31;4966794;28;20203;-30
2023/04/30 04:46:57;;;;;;;3.07;1.80;;;;;;;20.38;54.35;97764.84;4973387;28;20207;-28
2023/04/30 04:49:24;;;;;;;1.93;1.83;;;;;;;20.37;54.11;97760.56;4962723;28;20572;-29
2023/04/30 04:51:51;;;;;;;2.37;2.17;;;;;;;20.27;54.34;97746.59;4975888;28;20706;-29
2023/04/30 04:54:17;;;;;;;2.07;1.97;;;;;;;20.38;54.02;97767.41;4967300;28;20227;-28
2023/04/30 04:56:44;;;;;;;2.27;2.07;;;;;;;20.25;54.33;97745.66;4973298;28;20674;-29
2023/04/30 04:59:11;;;;;;;2.83;2.03;;;;;;;20.39;53.92;97766.59;4975695;28;20629;-28
2023/04/30 05:01:38;;;;;;;1.93;1.83;;;;;;;20.37;54.02;97763.13;4967749;28;20266;-28
2023/04/30 05:04:05;;;;;;;2.10;1.90;;;;;;;20.38;53.81;97767.41;4975595;28;20199;-28
2023/04/30 05:06:31;;;;;;;2.13;2.03;;;;;;;20.37;53.99;97774.19;4971239;28;20673;-28
2023/04/30 05:08:58;;;;;;;1.83;1.73;;;;;;;20.38;53.79;97775.94;4972432;28;20545;-28
2023/04/30 05:11:25;;;;;;;1.93;1.83;;;;;;;20.30;54.22;97768.78;4959694;28;20228;-28
2023/04/30 05:13:51;;;;;;;2.10;2.00;;;;;;;20.39;54.13;97779.34;4970912;28;20790;-29
2023/04/30 05:16:18;;;;;;;2.10;1.97;;;;;;;20.35;53.47;97780.06;4971324;28;20200;-28
2023/04/30 05:18:44;;;;;;;2.20;2.10;;;;;;;20.33;54.19;97774.91;4959370;28;20258;-28
2023/04/30 05:21:11;;;;;;;1.90;1.80;;;;;;;20.38;54.02;97782.72;4971378;28;20226;-29
2023/04/30 05:23:37;;;;;;;2.13;2.00;;;;;;;20.39;53.91;97781.91;4960044;28;20737;-29
2023/04/30 05:26:04;;;;;;;2.40;2.20;;;;;;;20.33;54.38;97776.56;4971178;28;20287;-29
2023/04/30 05:28:32;;;;;;;2.40;1.80;;;;;;;20.39;54.10;97785.34;4959107;28;20735;-29
2023/04/30 05:30:58;;;;;;;2.27;2.07;;;;;;;20.39;53.66;97787.00;4974714;28;20580;-29
2023/04/30 05:33:25;;;;;;;2.33;2.13;;;;;;;20.33;53.86;97774.91;4992551;23;20226;-34
2023/04/30 05:35:51;;;;;;;2.20;2.00;;;;;;;20.27;54.30;97774.66;5013242;28;20210;-38
2023/04/30 05:38:18;;;;;;;2.00;1.90;;;;;;;20.39;53.99;97797.22;5013088;28;20306;-41
2023/04/30 05:40:44;;;;;;;2.30;2.13;;;;;;;19.87;54.02;97711.00;5010192;28;20286;-32
2023/04/30 05:43:11;;;;;;;2.13;2.03;;;;;;;20.31;54.55;97780.75;5005965;28;20229;-29
2023/04/30 05:45:38;;;;;;;2.10;2.00;;;;;;;20.10;53.91;97747.59;5010120;28;20199;-29
2023/04/30 05:48:04;;;;;;;2.20;2.00;;;;;;;19.72;54.34;97681.50;5013493;28;20234;-32
2023/04/30 05:50:31;;;;;;;2.03;1.93;;;;;;;20.11;54.01;97748.47;5008070;28;20207;-29
2023/04/30 05:52:57;;;;;;;2.33;2.23;;;;;;;19.87;54.50;97705.03;5004703;28;20223;-35
2023/04/30 05:55:24;;;;;;;2.10;2.00;;;;;;;19.90;53.99;97712.81;5010854;28;20255;-38
2023/04/30 05:57:51;;;;;;;2.33;2.13;;;;;;;19.94;53.82;97713.00;5010454;28;20262;-32
2023/04/30 06:00:17;;;;;;;2.10;2.00;;;;;;;20.27;54.30;97778.88;5012407;28;20199;-40
2023/04/30 06:02:44;;;;;;;2.20;2.10;;;;;;;20.01;54.19;97734.47;5010448;28;20208;-37
2023/04/30 06:05:10;;;;;;;2.00;1.80;;;;;;;20.26;54.24;97775.47;5009657;28;20187;-38
2023/04/30 06:07:40;;;;;;;2.40;2.20;;;;;;;19.95;54.31;97721.50;5008036;28;20207;-30
2023/04/30 06:10:08;;;;;;;2.23;2.10;;;;;;;19.60;54.31;97660.63;5014096;28;20267;-39
2023/04/30 06:12:34;;;;;;;2.30;2.10;;;;;;;20.24;54.45;97774.53;5014615;28;20206;-36
2023/04/30 06:15:01;;;;;;;2.50;2.30;;;;;;;20.05;54.03;97727.81;5014266;28;20219;-39
2023/04/30 06:17:28;;;;;;;2.53;2.33;;;;;;;19.98;54.78;97720.75;5005012;28;20231;-36
2023/04/30 06:19:54;;;;;;;3.00;2.23;;;;;;;19.86;53.94;97695.63;5013438;28;20199;-36
2023/04/30 06:22:21;;;;;;;2.50;2.30;;;;;;;19.89;54.12;97705.94;5004997;28;20231;-37
2023/04/30 06:24:48;;;;;;;2.20;2.10;;;;;;;19.88;54.05;97700.00;4979204;28;20200;-34
2023/04/30 06:27:14;;;;;;;2.67;2.47;;;;;;;20.12;54.13;97735.78;5009640;28;20298;-29
2023/04/30 06:29:41;;;;;;;2.80;2.47;;;;;;;20.35;54.08;97777.50;5006576;28;21354;-33
2023/04/30 06:32:07;;;;;;;2.33;2.17;;;;;;;20.37;54.32;97783.53;5013489;28;20300;-31
2023/04/30 06:34:35;;;;;;;2.70;2.50;;;;;;;20.24;54.38;97760.91;5010985;28;20233;-41
2023/04/30 06:37:02;;;;;;;2.70;2.50;;;;;;;19.90;54.97;97687.31;5010374;28;20194;-38
2023/04/30 06:39:29;;;;;;;2.70;2.50;;;;;;;20.36;54.55;97769.91;5004543;28;20191;-46
2023/04/30 06:41:56;;;;;;;2.80;2.60;;;;;;;19.97;54.38;97707.13;5008869;28;20208;-47
2023/04/30 06:44:22;;;;;;;2.20;2.10;;;;;;;20.44;54.47;97793.16;5012274;28;20270;-50
2023/04/30 06:46:49;;;;;;;2.80;2.60;;;;;;;20.01;54.08;97715.78;5007860;28;20274;-32
2023/04/30 06:49:15;;;;;;;2.80;2.60;;;;;;;20.20;53.88;97748.84;5004683;28;20201;-41
2023/04/30 06:51:42;;;;;;;2.33;2.20;;;;;;;20.16;54.20;97739.34;4988102;28;20279;-32
2023/04/30 06:54:09;;;;;;;2.47;2.27;;;;;;;20.42;54.43;97789.69;5000015;28;20310;-30
2023/04/30 06:56:36;;;;;;;2.80;2.60;;;;;;;20.28;54.27;97763.63;5004873;28;20223;-38
2023/04/30 06:59:02;;;;;;;3.07;2.70;;;;;;;20.42;54.85;97790.56;5009181;28;20254;-31
2023/04/30 07:01:29;;;;;;;3.10;2.90;;;;;;;19.90;54.44;97695.81;5010016;28;20286;-32
2023/04/30 07:03:56;;;;;;;2.80;2.60;;;;;;;19.81;54.89;97680.16;5012835;28;20250;-28
2023/04/30 07:06:23;;;;;;;7.17;3.20;;;;;;;20.30;55.21;97766.25;5011925;28;20207;-29
2023/04/30 07:08:50;;;;;;;6.23;3.40;;;;;;;20.37;55.21;97779.28;4999673;28;20183;-41
2023/04/30 07:11:16;;;;;;;8.63;3.67;;;;;;;20.14;55.17;97744.41;5011499;28;20206;-37
2023/04/30 07:13:43;;;;;;;14.90;4.30;;;;;;;20.31;55.25;97771.41;5010699;28;20207;-44
2023/04/30 07:16:10;;;;;;;8.30;3.77;;;;;;;20.15;55.48;97745.25;5006187;28;20230;-50
2023/04/30 07:18:37;;;;;;;6.90;3.93;;;;;;;20.46;55.18;97794.94;5009486;28;20230;-42
2023/04/30 07:21:03;;;;;;;7.03;4.10;;;;;;;19.98;55.32;97702.91;5001477;28;20267;-38
2023/04/30 07:23:30;;;;;;;5.80;3.90;;;;;;;20.40;55.00;97786.22;5008528;28;20233;-35
2023/04/30 07:25:56;;;;;;;5.33;4.70;;;;;;;20.47;54.85;97789.06;5008681;28;20253;-29
2023/04/30 07:28:23;;;;;;;7.13;4.77;;;;;;;20.44;54.73;97781.28;5011324;28;20195;-40
2023/04/30 07:30:50;;;;;;;7.33;5.77;;;;;;;19.92;54.07;97693.31;5003513;28;20220;-31
2023/04/30 07:33:16;;;;;;;10.80;5.53;;;;;;;19.95;53.73;97696.84;5004652;28;20250;-32
2023/04/30 07:35:43;;;;;;;7.30;5.63;;;;;;;19.96;53.51;97701.13;5011733;28;20253;-33
2023/04/30 07:38:10;;;;;;;8.47;5.80;;;;;;;20.02;53.57;97711.56;5010307;28;20191;-30
2023/04/30 07:40:36;;;;;;;6.20;5.67;;;;;;;19.84;53.59;97690.47;5008054;28;20285;-35
2023/04/30 07:43:03;;;;;;;5.70;5.10;;;;;;;20.34;53.52;97771.50;5010864;28;20222;-36
2023/04/30 07:45:30;;;;;;;5.20;4.70;;;;;;;20.18;53.58;97740.25;5006080;28;20219;-33
2023/04/30 07:47:57;;;;;;;7.87;5.47;;;;;;;20.20;53.49;97747.19;5012007;28;20225;-29
2023/04/30 07:50:24;;;;;;;6.13;5.10;;;;;;;20.04;53.55;97716.75;5007839;28;20190;-30
2023/04/30 07:52:50;;;;;;;8.80;4.07;;;;;;;19.92;53.60;97689.09;4999369;28;20208;-30
2023/04/30 07:55:17;;;;;;;4.97;3.90;;;;;;;20.05;53.52;97718.50;5008104;28;20225;-43
2023/04/30 07:57:43;;;;;;;3.73;3.33;;;;;;;20.14;53.17;97729.09;5010457;28;20724;-33
2023/04/30 08:00:11;;;;;;;3.90;3.50;;;;;;;19.99;53.52;97700.41;5003589;28;20200;-43
2023/04/30 08:02:37;;;;;;;3.50;3.20;;;;;;;20.38;53.80;97787.81;5009352;28;20254;-49
2023/04/30 08:05:04;;;;;;;3.90;3.50;;;;;;;20.35;53.56;97774.94;5004216;28;20266;-37
2023/04/30 08:07:31;;;;;;;5.37;3.43;;;;;;;20.05;53.18;97715.94;5004910;28;20189;-32
2023/04/30 08:09:57;;;;;;;3.70;3.40;;;;;;;20.02;53.30;97717.50;5007986;28;20270;-43
2023/04/30 08:12:24;;;;;;;5.17;3.50;;;;;;;19.95;53.96;97712.16;5004805;28;20259;-32
2023/04/30 08:14:59;;;;;;;3.63;3.30;;;;;;;20.36;53.94;97781.78;5009634;28;20230;-30
2023/04/30 08:17:25;;;;;;;5.37;3.90;;;;;;;20.38;53.98;97798.91;5007665;28;20198;-44
2023/04/30 08:19:52;;;;;;;4.07;3.67;;;;;;;20.23;54.20;97757.50;5004779;28;20211;-31
2023/04/30 08:22:19;;;;;;;4.67;3.87;;;;;;;20.02;53.82;97714.13;5007577;28;20195;-29
2023/04/30 08:24:45;;;;;;;4.93;3.83;;;;;;;20.01;53.92;97719.16;5007443;28;20200;-32
2023/04/30 08:27:12;;;;;;;6.47;4.30;;;;;;;20.30;53.22;97764.56;5014008;28;20222;-31
2023/04/30 08:29:39;;;;;;;4.40;4.00;;;;;;;20.00;53.81;97709.78;5011917;28;20218;-29
2023/04/30 08:32:05;;;;;;;4.20;3.80;;;;;;;19.96;53.63;97708.78;5013007;28;20242;-31
2023/04/30 08:34:32;;;;;;;4.83;4.20;;;;;;;20.17;53.66;97739.41;4985488;28;20298;-28
2023/04/30 08:36:59;;;;;;;4.70;4.30;;;;;;;20.22;53.46;97750.63;5015596;28;20263;-32
2023/04/30 08:39:25;;;;;;;4.93;4.13;;;;;;;20.33;53.43;97774.91;5014940;28;20231;-44
2023/04/30 08:41:55;;;;;;;4.53;4.13;;;;;;;20.27;53.67;97761.91;5003120;28;20492;-38
2023/04/30 08:44:22;;;;;;;4.73;4.30;;;;;;;20.16;53.79;97742.75;5002636;28;20203;-35
2023/04/30 08:46:53;;;;;;;4.70;4.30;;;;;;;20.24;53.55;97745.59;5008371;28;20230;-36
2023/04/30 08:49:22;;;;;;;5.00;4.40;;;;;;;20.20;53.73;97757.38;5008898;28;20259;-34
2023/04/30 08:51:50;;;;;;;4.83;4.30;;;;;;;20.06;53.60;97717.69;4999841;28;20195;-43
2023/04/30 08:54:17;;;;;;;4.53;4.13;;;;;;;19.98;53.57;97702.91;5012528;28;20238;-38
2023/04/30 08:56:44;;;;;;;4.43;4.00;;;;;;;20.36;53.67;97767.34;5004273;28;20247;-43
2023/04/30 08:59:11;;;;;;;4.87;4.37;;;;;;;20.18;53.80;97737.69;5009702;28;20769;-33
2023/04/30 09:01:38;;;;;;;5.93;4.20;;;;;;;20.06;53.55;97716.78;5013876;28;20195;-43
2023/04/30 09:04:05;;;;;;;4.47;4.13;;;;;;;20.35;53.69;97777.50;5005910;28;20230;-38
2023/04/30 09:06:31;;;;;;;5.53;4.40;;;;;;;20.25;53.21;97748.19;5006160;28;20195;-36
2023/04/30 09:08:58;;;;;;;4.70;4.30;;;;;;;20.39;53.63;97774.25;5009621;28;20194;-31
2023/04/30 09:11:29;;;;;;;3.97;3.53;;;;;;;20.03;53.69;97715.00;4986798;28;20206;-33
2023/04/30 09:14:00;;;;;;;5.07;4.30;;;;;;;20.04;53.50;97714.19;5003131;28;20290;-32
2023/04/30 09:16:46;;;;;;;5.07;4.00;;;;;;;20.04;53.65;97711.63;5003104;28;20299;-29
2023/04/30 09:19:23;;;;;;;5.30;4.23;;;;;;;20.44;53.73;97791.50;4998844;28;20200;-31
2023/04/30 09:21:49;;;;;;;4.60;4.17;;;;;;;20.27;53.68;97761.03;5010749;28;20302;-28
2023/04/30 09:24:16;;;;;;;4.00;3.70;;;;;;;20.37;54.07;97789.50;5014730;28;20214;-28
2023/04/30 09:26:45;;;;;;;4.77;4.30;;;;;;;20.44;53.59;97791.50;5012062;28;20214;-28
2023/04/30 09:29:12;;;;;;;4.10;3.80;;;;;;;20.10;53.48;97734.81;5006167;28;20183;-28
2023/04/30 09:31:45;;;;;;;5.43;4.63;;;;;;;20.31;53.74;97766.28;5006525;28;20226;-33
2023/04/30 09:34:13;;;;;;;5.30;4.00;;;;;;;20.30;53.58;97769.69;5008372;28;20215;-41
2023/04/30 09:36:53;;;;;;;4.93;4.50;;;;;;;20.18;53.69;97745.34;5001148;28;20208;-40
2023/04/30 09:39:20;;;;;;;5.10;4.60;;;;;;;19.98;53.84;97708.00;5003617;28;20179;-40
2023/04/30 09:41:47;;;;;;;4.30;3.90;;;;;;;20.42;53.83;97788.00;5003677;28;20194;-35
2023/04/30 09:44:30;;;;;;;5.13;4.63;;;;;;;19.91;53.73;97701.78;5013648;28;20207;-37
2023/04/30 09:46:57;;;;;;;4.40;4.00;;;;;;;20.12;53.86;97734.88;5010820;28;20194;-49
2023/04/30 09:49:24;;;;;;;5.03;4.53;;;;;;;19.87;53.78;97692.28;5008583;28;20225;-40
2023/04/30 09:51:58;;;;;;;4.27;3.80;;;;;;;20.10;53.90;97737.38;5004786;28;20266;-54
2023/04/30 09:54:27;;;;;;;4.60;4.20;;;;;;;19.95;53.78;97714.72;5013530;28;20282;-41
2023/04/30 09:56:55;;;;;;;5.10;4.60;;;;;;;20.14;53.83;97744.41;5012526;28;20207;-36
2023/04/30 09:59:22;;;;;;;5.10;4.60;;;;;;;20.34;54.10;97779.19;5004066;28;20199;-43
2023/04/30 10:01:50;;;;;;;5.10;4.60;;;;;;;20.32;53.76;97767.19;4997831;28;20211;-39
2023/04/30 10:04:16;;;;;;;4.60;4.30;;;;;;;20.19;53.54;97758.19;4995255;28;20224;-39
2023/04/30 10:06:43;;;;;;;4.80;4.40;;;;;;;20.02;53.96;97718.38;5007133;28;20209;-33
2023/04/30 10:09:10;;;;;;;5.93;4.73;;;;;;;20.29;53.81;97759.41;4993650;28;20198;-29
2023/04/30 10:11:37;;;;;;;5.33;4.43;;;;;;;20.19;53.96;97755.63;4971757;28;20198;-38
2023/04/30 10:14:11;;;;;;;5.17;4.70;;;;;;;20.18;53.62;97742.81;4993079;28;20219;-32
2023/04/30 10:16:58;;;;;;;4.90;4.37;;;;;;;19.89;53.86;97686.41;5012667;28;20282;-32
2023/04/30 10:19:25;;;;;;;5.47;4.97;;;;;;;20.05;53.68;97715.06;5008627;28;20202;-31
2023/04/30 10:21:52;;;;;;;6.07;5.23;;;;;;;20.16;53.75;97721.50;5010278;28;20199;-28
2023/04/30 10:24:19;;;;;;;5.13;4.47;;;;;;;20.33;53.77;97745.94;5005174;28;20215;-29
2023/04/30 10:26:46;;;;;;;4.57;4.17;;;;;;;20.02;53.19;97697.09;5000270;28;20269;-29
2023/04/30 10:29:14;;;;;;;5.37;4.23;;;;;;;20.35;53.47;97757.09;5004262;28;20206;-34
2023/04/30 10:31:41;;;;;;;6.70;4.23;;;;;;;20.35;53.69;97752.84;4999378;28;20187;-34
2023/04/30 10:34:17;;;;;;;4.60;4.20;;;;;;;20.48;53.56;97770.38;4996913;28;20282;-29
2023/04/30 10:36:47;;;;;;;5.30;4.60;;;;;;;20.16;53.73;97706.19;5008413;28;20294;-28
2023/04/30 10:39:17;;;;;;;4.87;4.40;;;;;;;20.19;53.71;97703.75;5002715;28;20207;-47
2023/04/30 10:41:45;;;;;;;5.90;4.10;;;;;;;20.20;53.54;97711.47;4992146;28;20591;-40
2023/04/30 10:44:12;;;;;;;4.90;4.50;;;;;;;20.07;53.73;97688.78;5002687;28;20214;-31
2023/04/30 10:46:38;;;;;;;4.63;4.23;;;;;;;20.35;53.61;97739.22;5004253;28;20203;-41
2023/04/30 10:49:05;;;;;;;4.97;4.33;;;;;;;20.07;53.78;97690.50;5012780;28;20187;-38
2023/04/30 10:51:50;;;;;;;4.80;4.40;;;;;;;20.36;53.50;97738.41;4990934;28;20202;-50
2023/04/30 10:54:23;;;;;;;4.60;4.20;;;;;;;20.08;53.52;97688.00;5011416;28;20219;-43
2023/04/30 10:56:50;;;;;;;4.40;4.00;;;;;;;20.29;53.67;97718.56;5003626;28;20203;-32
2023/04/30 10:59:18;;;;;;;4.43;4.03;;;;;;;20.07;53.48;97682.84;5009430;28;20195;-36
2023/04/30 11:01:58;;;;;;;5.10;4.60;;;;;;;20.25;53.62;97712.47;5007056;28;20220;-36
2023/04/30 11:04:25;;;;;;;4.50;4.10;;;;;;;20.11;53.61;97682.13;5008880;28;20218;-39
2023/04/30 11:06:52;;;;;;;4.23;3.93;;;;;;;20.52;53.83;97748.38;5011794;28;20195;-31
2023/04/30 11:09:19;;;;;;;4.60;4.20;;;;;;;20.29;53.44;97727.09;5010184;28;20239;-31
2023/04/30 11:11:49;;;;;;;4.73;4.23;;;;;;;20.11;53.71;97671.94;5006277;28;20195;-40
2023/04/30 11:14:21;;;;;;;4.67;4.27;;;;;;;20.07;53.52;97667.53;5000747;28;20243;-37
2023/04/30 11:16:48;;;;;;;5.47;4.70;;;;;;;19.99;53.59;97657.88;4998586;28;20219;-31
2023/04/30 11:19:15;;;;;;;6.67;4.73;;;;;;;20.09;53.84;97669.31;5004364;28;20203;-28
2023/04/30 11:22:02;;;;;;;5.53;4.50;;;;;;;20.24;53.54;97699.66;4988199;28;20290;-28
2023/04/30 11:24:52;;;;;;;5.97;4.37;;;;;;;19.88;53.60;97628.59;5000410;28;20208;-32
2023/04/30 11:27:20;;;;;;;9.63;4.70;;;;;;;20.03;53.56;97658.88;5008147;28;20201;-37
2023/04/30 11:29:46;;;;;;;4.87;4.47;;;;;;;20.04;53.63;97652.97;4999737;28;20213;-36
2023/04/30 11:32:13;;;;;;;4.90;4.23;;;;;;;20.23;53.68;97683.50;5005051;28;20195;-32
2023/04/30 11:34:42;;;;;;;5.17;4.57;;;;;;;20.21;53.48;97682.56;5005925;28;20239;-29
2023/04/30 11:37:08;;;;;;;4.87;4.47;;;;;;;20.10;53.49;97668.50;5002768;28;20720;-30
2023/04/30 11:39:35;;;;;;;4.93;4.43;;;;;;;20.44;53.67;97720.00;4989688;28;20196;-33